sensor_id;sensor_type;location;lat;lon;timestamp;P1;durP1;ratioP1;P2;durP2;ratioP2
71503;SDS011;59323;50.874;7.028;2023-06-26T00:02:08;9.90;;;6.20;;
71503;SDS011;59323;50.874;7.028;2023-06-26T00:04:33;9.20;;;6.13;;
71503;SDS011;59323;50.874;7.028;2023-06-26T00:07:00;10.20;;;6.40;;
71503;SDS011;59323;50.874;7.028;2023-06-26T00:09:26;9.90;;;5.70;;
71503;SDS011;59323;50.874;7.028;2023-06-26T00:11:51;9.50;;;5.60;;
71503;SDS011;59323;50.874;7.028;2023-06-26T00:14:17;9.63;;;6.00;;
71503;SDS011;59323;50.874;7.028;2023-06-26T00:16:46;9.57;;;5.67;;
71503;SDS011;59323;50.874;7.028;2023-06-26T00:19:11;11.88;;;5.85;;
71503;SDS011;59323;50.874;7.028;2023-06-26T00:21:37;9.17;;;5.33;;
71503;SDS011;59323;50.874;7.028;2023-06-26T00:24:02;9.20;;;5.87;;
71503;SDS011;59323;50.874;7.028;2023-06-26T00:26:28;8.73;;;5.27;;
71503;SDS011;59323;50.874;7.028;2023-06-26T00:28:53;9.40;;;5.67;;
71503;SDS011;59323;50.874;7.028;2023-06-26T00:31:18;9.43;;;5.10;;
71503;SDS011;59323;50.874;7.028;2023-06-26T00:33:44;10.90;;;5.33;;
71503;SDS011;59323;50.874;7.028;2023-06-26T00:36:09;11.37;;;5.57;;
71503;SDS011;59323;50.874;7.028;2023-06-26T00:38:35;8.63;;;5.13;;
71503;SDS011;59323;50.874;7.028;2023-06-26T00:41:00;10.80;;;4.60;;
71503;SDS011;59323;50.874;7.028;2023-06-26T00:43:25;9.10;;;5.60;;
71503;SDS011;59323;50.874;7.028;2023-06-26T00:45:51;11.03;;;6.07;;
71503;SDS011;59323;50.874;7.028;2023-06-26T00:48:16;8.80;;;5.40;;
71503;SDS011;59323;50.874;7.028;2023-06-26T00:50:42;8.77;;;5.38;;
71503;SDS011;59323;50.874;7.028;2023-06-26T00:53:09;9.05;;;5.15;;
71503;SDS011;59323;50.874;7.028;2023-06-26T00:55:35;9.90;;;5.97;;
71503;SDS011;59323;50.874;7.028;2023-06-26T00:58:01;8.88;;;5.68;;
71503;SDS011;59323;50.874;7.028;2023-06-26T01:00:27;11.43;;;6.40;;
71503;SDS011;59323;50.874;7.028;2023-06-26T01:02:52;9.23;;;5.43;;
71503;SDS011;59323;50.874;7.028;2023-06-26T01:05:17;11.77;;;5.80;;
71503;SDS011;59323;50.874;7.028;2023-06-26T01:07:48;9.88;;;5.93;;
71503;SDS011;59323;50.874;7.028;2023-06-26T01:10:15;9.73;;;5.63;;
71503;SDS011;59323;50.874;7.028;2023-06-26T01:12:40;10.75;;;6.30;;
71503;SDS011;59323;50.874;7.028;2023-06-26T01:15:06;9.97;;;5.53;;
71503;SDS011;59323;50.874;7.028;2023-06-26T01:17:32;9.80;;;5.65;;
71503;SDS011;59323;50.874;7.028;2023-06-26T01:20:01;11.80;;;5.50;;
71503;SDS011;59323;50.874;7.028;2023-06-26T01:22:34;8.85;;;5.45;;
71503;SDS011;59323;50.874;7.028;2023-06-26T01:28:03;10.15;;;5.55;;
71503;SDS011;59323;50.874;7.028;2023-06-26T01:30:37;10.55;;;5.97;;
71503;SDS011;59323;50.874;7.028;2023-06-26T01:33:06;10.00;;;5.95;;
71503;SDS011;59323;50.874;7.028;2023-06-26T01:35:32;11.80;;;6.57;;
71503;SDS011;59323;50.874;7.028;2023-06-26T01:38:17;10.75;;;6.75;;
71503;SDS011;59323;50.874;7.028;2023-06-26T01:40:44;12.32;;;6.32;;
71503;SDS011;59323;50.874;7.028;2023-06-26T01:43:14;9.80;;;6.10;;
71503;SDS011;59323;50.874;7.028;2023-06-26T01:45:45;9.80;;;6.20;;
71503;SDS011;59323;50.874;7.028;2023-06-26T01:48:12;10.05;;;6.40;;
71503;SDS011;59323;50.874;7.028;2023-06-26T01:50:41;10.45;;;6.43;;
71503;SDS011;59323;50.874;7.028;2023-06-26T01:53:10;15.77;;;6.57;;
71503;SDS011;59323;50.874;7.028;2023-06-26T01:58:11;9.55;;;6.20;;
71503;SDS011;59323;50.874;7.028;2023-06-26T02:00:39;9.23;;;5.97;;
71503;SDS011;59323;50.874;7.028;2023-06-26T02:03:05;9.87;;;6.13;;
71503;SDS011;59323;50.874;7.028;2023-06-26T02:05:31;11.57;;;7.07;;
71503;SDS011;59323;50.874;7.028;2023-06-26T02:07:57;9.80;;;5.82;;
71503;SDS011;59323;50.874;7.028;2023-06-26T02:10:22;13.03;;;6.03;;
71503;SDS011;59323;50.874;7.028;2023-06-26T02:12:47;10.30;;;6.33;;
71503;SDS011;59323;50.874;7.028;2023-06-26T02:15:13;10.50;;;6.40;;
71503;SDS011;59323;50.874;7.028;2023-06-26T02:17:38;9.50;;;5.57;;
71503;SDS011;59323;50.874;7.028;2023-06-26T02:20:04;9.80;;;6.00;;
71503;SDS011;59323;50.874;7.028;2023-06-26T02:22:30;9.85;;;5.90;;
71503;SDS011;59323;50.874;7.028;2023-06-26T02:24:56;10.13;;;6.47;;
71503;SDS011;59323;50.874;7.028;2023-06-26T02:27:21;10.43;;;5.82;;
71503;SDS011;59323;50.874;7.028;2023-06-26T02:29:47;10.40;;;6.03;;
71503;SDS011;59323;50.874;7.028;2023-06-26T02:32:12;11.40;;;5.80;;
71503;SDS011;59323;50.874;7.028;2023-06-26T02:34:38;11.57;;;6.50;;
71503;SDS011;59323;50.874;7.028;2023-06-26T02:37:03;10.03;;;5.67;;
71503;SDS011;59323;50.874;7.028;2023-06-26T02:39:31;10.20;;;5.75;;
71503;SDS011;59323;50.874;7.028;2023-06-26T02:41:57;9.87;;;6.03;;
71503;SDS011;59323;50.874;7.028;2023-06-26T02:44:22;9.83;;;6.07;;
71503;SDS011;59323;50.874;7.028;2023-06-26T02:46:47;9.70;;;5.80;;
71503;SDS011;59323;50.874;7.028;2023-06-26T02:49:13;13.07;;;6.47;;
71503;SDS011;59323;50.874;7.028;2023-06-26T02:51:38;10.20;;;5.55;;
71503;SDS011;59323;50.874;7.028;2023-06-26T02:54:03;11.03;;;5.70;;
71503;SDS011;59323;50.874;7.028;2023-06-26T02:56:29;11.27;;;6.77;;
71503;SDS011;59323;50.874;7.028;2023-06-26T02:58:57;11.30;;;6.00;;
71503;SDS011;59323;50.874;7.028;2023-06-26T03:01:23;10.45;;;5.78;;
71503;SDS011;59323;50.874;7.028;2023-06-26T03:03:48;9.67;;;5.70;;
71503;SDS011;59323;50.874;7.028;2023-06-26T03:06:14;12.27;;;5.80;;
71503;SDS011;59323;50.874;7.028;2023-06-26T03:08:40;9.32;;;5.57;;
71503;SDS011;59323;50.874;7.028;2023-06-26T03:11:06;11.93;;;5.70;;
71503;SDS011;59323;50.874;7.028;2023-06-26T03:13:32;11.02;;;5.95;;
71503;SDS011;59323;50.874;7.028;2023-06-26T03:15:59;9.05;;;5.63;;
71503;SDS011;59323;50.874;7.028;2023-06-26T03:18:24;9.43;;;5.70;;
71503;SDS011;59323;50.874;7.028;2023-06-26T03:20:50;14.53;;;6.60;;
71503;SDS011;59323;50.874;7.028;2023-06-26T03:23:20;10.57;;;5.55;;
71503;SDS011;59323;50.874;7.028;2023-06-26T03:25:46;11.63;;;6.57;;
71503;SDS011;59323;50.874;7.028;2023-06-26T03:28:11;11.67;;;5.97;;
71503;SDS011;59323;50.874;7.028;2023-06-26T03:30:37;10.43;;;6.20;;
71503;SDS011;59323;50.874;7.028;2023-06-26T03:33:02;9.33;;;5.77;;
71503;SDS011;59323;50.874;7.028;2023-06-26T03:35:27;9.93;;;5.47;;
71503;SDS011;59323;50.874;7.028;2023-06-26T03:37:53;9.27;;;5.80;;
71503;SDS011;59323;50.874;7.028;2023-06-26T03:40:18;10.03;;;6.13;;
71503;SDS011;59323;50.874;7.028;2023-06-26T03:42:43;9.17;;;5.13;;
71503;SDS011;59323;50.874;7.028;2023-06-26T03:45:09;10.27;;;5.83;;
71503;SDS011;59323;50.874;7.028;2023-06-26T03:47:34;9.97;;;6.10;;
71503;SDS011;59323;50.874;7.028;2023-06-26T03:49:59;11.03;;;5.33;;
71503;SDS011;59323;50.874;7.028;2023-06-26T03:52:25;10.33;;;5.10;;
71503;SDS011;59323;50.874;7.028;2023-06-26T03:54:50;12.33;;;6.17;;
71503;SDS011;59323;50.874;7.028;2023-06-26T03:57:15;9.37;;;5.73;;
71503;SDS011;59323;50.874;7.028;2023-06-26T03:59:41;9.20;;;5.27;;
71503;SDS011;59323;50.874;7.028;2023-06-26T04:02:06;8.87;;;5.40;;
71503;SDS011;59323;50.874;7.028;2023-06-26T04:04:32;9.25;;;5.25;;
71503;SDS011;59323;50.874;7.028;2023-06-26T04:06:57;8.93;;;5.30;;
71503;SDS011;59323;50.874;7.028;2023-06-26T04:09:24;9.73;;;5.45;;
71503;SDS011;59323;50.874;7.028;2023-06-26T04:11:50;8.80;;;4.43;;
71503;SDS011;59323;50.874;7.028;2023-06-26T04:14:15;10.30;;;4.83;;
71503;SDS011;59323;50.874;7.028;2023-06-26T04:16:40;8.73;;;4.60;;
71503;SDS011;59323;50.874;7.028;2023-06-26T04:19:06;10.40;;;5.03;;
71503;SDS011;59323;50.874;7.028;2023-06-26T04:21:31;10.23;;;5.07;;
71503;SDS011;59323;50.874;7.028;2023-06-26T04:23:57;8.07;;;4.38;;
71503;SDS011;59323;50.874;7.028;2023-06-26T04:26:22;7.77;;;4.53;;
71503;SDS011;59323;50.874;7.028;2023-06-26T04:28:47;8.40;;;4.80;;
71503;SDS011;59323;50.874;7.028;2023-06-26T04:31:13;10.03;;;5.00;;
71503;SDS011;59323;50.874;7.028;2023-06-26T04:33:38;10.40;;;5.00;;
71503;SDS011;59323;50.874;7.028;2023-06-26T04:36:04;12.03;;;4.93;;
71503;SDS011;59323;50.874;7.028;2023-06-26T04:38:31;8.93;;;4.65;;
71503;SDS011;59323;50.874;7.028;2023-06-26T04:40:57;9.88;;;5.00;;
71503;SDS011;59323;50.874;7.028;2023-06-26T04:43:22;9.70;;;4.60;;
71503;SDS011;59323;50.874;7.028;2023-06-26T04:45:48;9.40;;;5.30;;
71503;SDS011;59323;50.874;7.028;2023-06-26T04:48:13;10.37;;;5.33;;
71503;SDS011;59323;50.874;7.028;2023-06-26T04:50:39;9.63;;;4.63;;
71503;SDS011;59323;50.874;7.028;2023-06-26T04:53:05;14.63;;;5.65;;
71503;SDS011;59323;50.874;7.028;2023-06-26T04:55:30;9.73;;;5.03;;
71503;SDS011;59323;50.874;7.028;2023-06-26T04:57:56;11.50;;;5.03;;
71503;SDS011;59323;50.874;7.028;2023-06-26T05:00:21;9.40;;;4.53;;
71503;SDS011;59323;50.874;7.028;2023-06-26T05:02:47;12.05;;;4.97;;
71503;SDS011;59323;50.874;7.028;2023-06-26T05:05:12;9.83;;;5.27;;
71503;SDS011;59323;50.874;7.028;2023-06-26T05:07:38;12.32;;;5.22;;
71503;SDS011;59323;50.874;7.028;2023-06-26T05:10:09;11.03;;;5.00;;
71503;SDS011;59323;50.874;7.028;2023-06-26T05:12:35;11.40;;;5.10;;
71503;SDS011;59323;50.874;7.028;2023-06-26T05:15:00;9.27;;;4.50;;
71503;SDS011;59323;50.874;7.028;2023-06-26T05:17:26;9.47;;;4.43;;
71503;SDS011;59323;50.874;7.028;2023-06-26T05:19:51;10.60;;;4.43;;
71503;SDS011;59323;50.874;7.028;2023-06-26T05:22:16;10.50;;;4.50;;
71503;SDS011;59323;50.874;7.028;2023-06-26T05:24:42;9.23;;;4.40;;
71503;SDS011;59323;50.874;7.028;2023-06-26T05:27:11;9.85;;;4.15;;
71503;SDS011;59323;50.874;7.028;2023-06-26T05:29:44;9.60;;;4.70;;
71503;SDS011;59323;50.874;7.028;2023-06-26T05:32:09;9.40;;;4.23;;
71503;SDS011;59323;50.874;7.028;2023-06-26T05:34:36;8.65;;;4.10;;
71503;SDS011;59323;50.874;7.028;2023-06-26T05:37:02;7.80;;;4.03;;
71503;SDS011;59323;50.874;7.028;2023-06-26T05:39:29;7.15;;;4.00;;
71503;SDS011;59323;50.874;7.028;2023-06-26T05:41:54;9.07;;;4.17;;
71503;SDS011;59323;50.874;7.028;2023-06-26T05:44:21;8.65;;;4.20;;
71503;SDS011;59323;50.874;7.028;2023-06-26T05:46:46;9.00;;;4.10;;
71503;SDS011;59323;50.874;7.028;2023-06-26T05:49:12;8.70;;;4.00;;
71503;SDS011;59323;50.874;7.028;2023-06-26T05:51:37;9.70;;;3.53;;
71503;SDS011;59323;50.874;7.028;2023-06-26T05:54:03;9.30;;;3.60;;
71503;SDS011;59323;50.874;7.028;2023-06-26T05:56:29;9.50;;;4.28;;
71503;SDS011;59323;50.874;7.028;2023-06-26T05:58:58;7.80;;;3.40;;
71503;SDS011;59323;50.874;7.028;2023-06-26T06:01:24;9.10;;;3.50;;
71503;SDS011;59323;50.874;7.028;2023-06-26T06:03:49;8.33;;;3.63;;
71503;SDS011;59323;50.874;7.028;2023-06-26T06:06:14;9.77;;;4.25;;
71503;SDS011;59323;50.874;7.028;2023-06-26T06:08:43;9.63;;;3.70;;
71503;SDS011;59323;50.874;7.028;2023-06-26T06:11:08;8.88;;;3.47;;
71503;SDS011;59323;50.874;7.028;2023-06-26T06:13:33;7.13;;;3.33;;
71503;SDS011;59323;50.874;7.028;2023-06-26T06:15:59;8.50;;;3.67;;
71503;SDS011;59323;50.874;7.028;2023-06-26T06:18:24;7.63;;;4.23;;
71503;SDS011;59323;50.874;7.028;2023-06-26T06:20:49;9.97;;;4.60;;
71503;SDS011;59323;50.874;7.028;2023-06-26T06:23:18;9.25;;;3.88;;
71503;SDS011;59323;50.874;7.028;2023-06-26T06:25:43;10.60;;;3.70;;
71503;SDS011;59323;50.874;7.028;2023-06-26T06:28:08;7.93;;;3.30;;
71503;SDS011;59323;50.874;7.028;2023-06-26T06:30:37;11.23;;;4.17;;
71503;SDS011;59323;50.874;7.028;2023-06-26T06:33:02;10.83;;;3.70;;
71503;SDS011;59323;50.874;7.028;2023-06-26T06:35:28;11.10;;;3.70;;
71503;SDS011;59323;50.874;7.028;2023-06-26T06:37:53;8.50;;;3.20;;
71503;SDS011;59323;50.874;7.028;2023-06-26T06:40:18;9.43;;;4.00;;
71503;SDS011;59323;50.874;7.028;2023-06-26T06:42:44;13.68;;;3.63;;
71503;SDS011;59323;50.874;7.028;2023-06-26T06:45:09;8.47;;;3.90;;
71503;SDS011;59323;50.874;7.028;2023-06-26T06:47:35;9.63;;;3.90;;
71503;SDS011;59323;50.874;7.028;2023-06-26T06:50:01;11.43;;;3.85;;
71503;SDS011;59323;50.874;7.028;2023-06-26T06:52:39;10.27;;;3.80;;
71503;SDS011;59323;50.874;7.028;2023-06-26T06:55:06;13.00;;;3.90;;
71503;SDS011;59323;50.874;7.028;2023-06-26T06:57:33;7.95;;;3.30;;
71503;SDS011;59323;50.874;7.028;2023-06-26T07:00:03;7.40;;;3.20;;
71503;SDS011;59323;50.874;7.028;2023-06-26T07:02:30;8.32;;;3.70;;
71503;SDS011;59323;50.874;7.028;2023-06-26T07:04:55;11.40;;;3.90;;
71503;SDS011;59323;50.874;7.028;2023-06-26T07:07:21;11.60;;;3.73;;
71503;SDS011;59323;50.874;7.028;2023-06-26T07:09:46;11.17;;;3.63;;
71503;SDS011;59323;50.874;7.028;2023-06-26T07:12:11;9.57;;;3.53;;
71503;SDS011;59323;50.874;7.028;2023-06-26T07:14:38;9.48;;;3.45;;
71503;SDS011;59323;50.874;7.028;2023-06-26T07:17:04;9.77;;;3.73;;
71503;SDS011;59323;50.874;7.028;2023-06-26T07:19:29;9.57;;;3.13;;
71503;SDS011;59323;50.874;7.028;2023-06-26T07:21:55;10.03;;;3.47;;
71503;SDS011;59323;50.874;7.028;2023-06-26T07:24:20;9.07;;;3.90;;
71503;SDS011;59323;50.874;7.028;2023-06-26T07:26:45;8.63;;;3.70;;
71503;SDS011;59323;50.874;7.028;2023-06-26T07:29:11;11.90;;;3.23;;
71503;SDS011;59323;50.874;7.028;2023-06-26T07:31:36;9.70;;;3.80;;
71503;SDS011;59323;50.874;7.028;2023-06-26T07:34:02;9.13;;;3.70;;
71503;SDS011;59323;50.874;7.028;2023-06-26T07:36:27;10.33;;;4.17;;
71503;SDS011;59323;50.874;7.028;2023-06-26T07:38:52;9.43;;;4.13;;
71503;SDS011;59323;50.874;7.028;2023-06-26T07:41:18;11.65;;;4.10;;
71503;SDS011;59323;50.874;7.028;2023-06-26T07:43:43;12.57;;;5.17;;
71503;SDS011;59323;50.874;7.028;2023-06-26T07:46:08;14.80;;;4.60;;
71503;SDS011;59323;50.874;7.028;2023-06-26T07:48:34;10.70;;;4.47;;
71503;SDS011;59323;50.874;7.028;2023-06-26T07:50:59;12.33;;;3.70;;
71503;SDS011;59323;50.874;7.028;2023-06-26T07:53:24;9.83;;;3.93;;
71503;SDS011;59323;50.874;7.028;2023-06-26T07:55:50;14.60;;;4.03;;
71503;SDS011;59323;50.874;7.028;2023-06-26T07:58:15;9.15;;;4.38;;
71503;SDS011;59323;50.874;7.028;2023-06-26T08:00:41;14.20;;;4.40;;
71503;SDS011;59323;50.874;7.028;2023-06-26T08:03:06;14.37;;;4.33;;
71503;SDS011;59323;50.874;7.028;2023-06-26T08:05:31;9.83;;;4.47;;
71503;SDS011;59323;50.874;7.028;2023-06-26T08:07:57;10.40;;;3.80;;
71503;SDS011;59323;50.874;7.028;2023-06-26T08:10:23;8.27;;;3.73;;
71503;SDS011;59323;50.874;7.028;2023-06-26T08:12:48;8.87;;;4.10;;
71503;SDS011;59323;50.874;7.028;2023-06-26T08:15:15;13.98;;;5.20;;
71503;SDS011;59323;50.874;7.028;2023-06-26T08:17:40;11.57;;;4.50;;
71503;SDS011;59323;50.874;7.028;2023-06-26T08:20:06;10.63;;;4.78;;
71503;SDS011;59323;50.874;7.028;2023-06-26T08:22:33;12.50;;;4.70;;
71503;SDS011;59323;50.874;7.028;2023-06-26T08:24:58;10.02;;;3.72;;
71503;SDS011;59323;50.874;7.028;2023-06-26T08:27:24;8.10;;;3.87;;
71503;SDS011;59323;50.874;7.028;2023-06-26T08:29:50;8.07;;;3.85;;
71503;SDS011;59323;50.874;7.028;2023-06-26T08:32:15;10.10;;;3.93;;
71503;SDS011;59323;50.874;7.028;2023-06-26T08:34:40;9.13;;;3.87;;
71503;SDS011;59323;50.874;7.028;2023-06-26T08:37:06;10.37;;;3.63;;
71503;SDS011;59323;50.874;7.028;2023-06-26T08:39:34;12.20;;;3.60;;
71503;SDS011;59323;50.874;7.028;2023-06-26T08:41:59;10.13;;;3.40;;
71503;SDS011;59323;50.874;7.028;2023-06-26T08:44:24;10.00;;;3.67;;
71503;SDS011;59323;50.874;7.028;2023-06-26T08:46:50;8.83;;;3.70;;
71503;SDS011;59323;50.874;7.028;2023-06-26T08:49:50;11.77;;;4.78;;
71503;SDS011;59323;50.874;7.028;2023-06-26T08:52:24;10.77;;;3.50;;
71503;SDS011;59323;50.874;7.028;2023-06-26T08:54:58;8.57;;;3.90;;
71503;SDS011;59323;50.874;7.028;2023-06-26T08:57:28;12.18;;;4.32;;
71503;SDS011;59323;50.874;7.028;2023-06-26T08:59:55;10.55;;;3.50;;
71503;SDS011;59323;50.874;7.028;2023-06-26T09:02:21;9.55;;;3.65;;
71503;SDS011;59323;50.874;7.028;2023-06-26T09:04:48;9.93;;;4.03;;
71503;SDS011;59323;50.874;7.028;2023-06-26T09:07:14;10.40;;;3.20;;
71503;SDS011;59323;50.874;7.028;2023-06-26T09:09:40;6.75;;;2.78;;
71503;SDS011;59323;50.874;7.028;2023-06-26T09:12:05;10.47;;;3.83;;
71503;SDS011;59323;50.874;7.028;2023-06-26T09:14:31;8.67;;;3.03;;
71503;SDS011;59323;50.874;7.028;2023-06-26T09:16:57;10.77;;;3.65;;
71503;SDS011;59323;50.874;7.028;2023-06-26T09:19:22;14.90;;;5.03;;
71503;SDS011;59323;50.874;7.028;2023-06-26T09:21:49;12.77;;;3.55;;
71503;SDS011;59323;50.874;7.028;2023-06-26T09:24:15;9.50;;;3.10;;
71503;SDS011;59323;50.874;7.028;2023-06-26T09:26:41;11.30;;;3.40;;
71503;SDS011;59323;50.874;7.028;2023-06-26T09:29:07;12.03;;;3.43;;
71503;SDS011;59323;50.874;7.028;2023-06-26T09:31:35;10.20;;;3.00;;
71503;SDS011;59323;50.874;7.028;2023-06-26T09:34:02;11.02;;;4.03;;
71503;SDS011;59323;50.874;7.028;2023-06-26T09:36:29;11.23;;;3.97;;
71503;SDS011;59323;50.874;7.028;2023-06-26T09:38:58;9.38;;;3.25;;
71503;SDS011;59323;50.874;7.028;2023-06-26T09:41:27;8.00;;;3.00;;
71503;SDS011;59323;50.874;7.028;2023-06-26T09:43:53;14.52;;;3.40;;
71503;SDS011;59323;50.874;7.028;2023-06-26T09:46:25;11.02;;;3.28;;
71503;SDS011;59323;50.874;7.028;2023-06-26T09:49:03;10.52;;;3.58;;
71503;SDS011;59323;50.874;7.028;2023-06-26T09:51:34;9.32;;;3.40;;
71503;SDS011;59323;50.874;7.028;2023-06-26T09:54:00;9.70;;;3.37;;
71503;SDS011;59323;50.874;7.028;2023-06-26T09:56:27;9.63;;;3.80;;
71503;SDS011;59323;50.874;7.028;2023-06-26T09:58:57;8.65;;;3.72;;
71503;SDS011;59323;50.874;7.028;2023-06-26T10:01:24;10.60;;;3.35;;
71503;SDS011;59323;50.874;7.028;2023-06-26T10:03:51;10.60;;;3.55;;
71503;SDS011;59323;50.874;7.028;2023-06-26T10:06:23;11.50;;;3.67;;
71503;SDS011;59323;50.874;7.028;2023-06-26T10:08:53;8.30;;;3.63;;
71503;SDS011;59323;50.874;7.028;2023-06-26T10:11:21;9.15;;;3.50;;
71503;SDS011;59323;50.874;7.028;2023-06-26T10:13:49;9.18;;;4.00;;
71503;SDS011;59323;50.874;7.028;2023-06-26T10:16:22;12.43;;;3.20;;
71503;SDS011;59323;50.874;7.028;2023-06-26T10:18:52;9.48;;;3.20;;
71503;SDS011;59323;50.874;7.028;2023-06-26T10:21:22;8.25;;;3.03;;
71503;SDS011;59323;50.874;7.028;2023-06-26T10:23:49;8.50;;;2.80;;
71503;SDS011;59323;50.874;7.028;2023-06-26T10:26:19;10.45;;;2.95;;
71503;SDS011;59323;50.874;7.028;2023-06-26T10:28:46;9.07;;;2.77;;
71503;SDS011;59323;50.874;7.028;2023-06-26T10:31:17;9.27;;;2.40;;
71503;SDS011;59323;50.874;7.028;2023-06-26T10:33:48;9.30;;;2.72;;
71503;SDS011;59323;50.874;7.028;2023-06-26T10:36:15;10.93;;;3.45;;
71503;SDS011;59323;50.874;7.028;2023-06-26T10:38:48;10.45;;;3.55;;
71503;SDS011;59323;50.874;7.028;2023-06-26T10:41:17;8.13;;;2.70;;
71503;SDS011;59323;50.874;7.028;2023-06-26T10:43:45;10.10;;;3.05;;
71503;SDS011;59323;50.874;7.028;2023-06-26T10:46:12;8.63;;;3.10;;
71503;SDS011;59323;50.874;7.028;2023-06-26T10:48:59;7.90;;;2.70;;
71503;SDS011;59323;50.874;7.028;2023-06-26T10:51:26;7.65;;;3.00;;
71503;SDS011;59323;50.874;7.028;2023-06-26T10:53:55;10.67;;;2.90;;
71503;SDS011;59323;50.874;7.028;2023-06-26T10:56:40;9.65;;;2.63;;
71503;SDS011;59323;50.874;7.028;2023-06-26T10:59:14;8.40;;;3.03;;
71503;SDS011;59323;50.874;7.028;2023-06-26T11:01:40;6.53;;;2.35;;
71503;SDS011;59323;50.874;7.028;2023-06-26T11:04:09;8.77;;;3.15;;
71503;SDS011;59323;50.874;7.028;2023-06-26T11:06:39;7.47;;;2.60;;
71503;SDS011;59323;50.874;7.028;2023-06-26T11:14:34;8.50;;;2.92;;
71503;SDS011;59323;50.874;7.028;2023-06-26T11:17:01;9.68;;;3.55;;
71503;SDS011;59323;50.874;7.028;2023-06-26T11:19:28;5.87;;;2.70;;
71503;SDS011;59323;50.874;7.028;2023-06-26T11:22:03;9.02;;;2.90;;
71503;SDS011;59323;50.874;7.028;2023-06-26T11:24:30;9.27;;;2.78;;
71503;SDS011;59323;50.874;7.028;2023-06-26T11:26:59;13.10;;;3.10;;
71503;SDS011;59323;50.874;7.028;2023-06-26T11:29:25;10.33;;;3.07;;
71503;SDS011;59323;50.874;7.028;2023-06-26T11:31:55;9.83;;;3.20;;
71503;SDS011;59323;50.874;7.028;2023-06-26T11:34:24;8.13;;;3.27;;
71503;SDS011;59323;50.874;7.028;2023-06-26T11:36:56;6.85;;;2.75;;
71503;SDS011;59323;50.874;7.028;2023-06-26T11:39:22;8.90;;;2.85;;
71503;SDS011;59323;50.874;7.028;2023-06-26T11:41:47;8.17;;;2.57;;
71503;SDS011;59323;50.874;7.028;2023-06-26T11:44:12;12.30;;;3.03;;
71503;SDS011;59323;50.874;7.028;2023-06-26T11:46:40;9.00;;;2.50;;
71503;SDS011;59323;50.874;7.028;2023-06-26T11:49:05;8.17;;;2.90;;
71503;SDS011;59323;50.874;7.028;2023-06-26T11:51:32;8.88;;;2.95;;
71503;SDS011;59323;50.874;7.028;2023-06-26T11:54:02;5.53;;;2.33;;
71503;SDS011;59323;50.874;7.028;2023-06-26T11:56:29;8.65;;;2.72;;
71503;SDS011;59323;50.874;7.028;2023-06-26T11:58:54;7.80;;;2.67;;
71503;SDS011;59323;50.874;7.028;2023-06-26T12:01:20;8.30;;;3.05;;
71503;SDS011;59323;50.874;7.028;2023-06-26T12:03:47;8.87;;;2.40;;
71503;SDS011;59323;50.874;7.028;2023-06-26T12:06:14;9.38;;;3.35;;
71503;SDS011;59323;50.874;7.028;2023-06-26T12:08:39;9.50;;;3.10;;
71503;SDS011;59323;50.874;7.028;2023-06-26T12:11:05;8.50;;;2.10;;
71503;SDS011;59323;50.874;7.028;2023-06-26T12:13:31;9.43;;;2.75;;
71503;SDS011;59323;50.874;7.028;2023-06-26T12:16:00;6.63;;;2.70;;
71503;SDS011;59323;50.874;7.028;2023-06-26T12:18:25;5.97;;;2.42;;
71503;SDS011;59323;50.874;7.028;2023-06-26T12:20:57;7.17;;;2.70;;
71503;SDS011;59323;50.874;7.028;2023-06-26T12:23:23;8.20;;;3.13;;
71503;SDS011;59323;50.874;7.028;2023-06-26T12:25:48;5.50;;;2.10;;
71503;SDS011;59323;50.874;7.028;2023-06-26T12:28:17;6.50;;;2.75;;
71503;SDS011;59323;50.874;7.028;2023-06-26T12:30:46;6.33;;;2.93;;
71503;SDS011;59323;50.874;7.028;2023-06-26T12:33:13;6.78;;;2.67;;
71503;SDS011;59323;50.874;7.028;2023-06-26T12:35:40;6.63;;;2.58;;
71503;SDS011;59323;50.874;7.028;2023-06-26T12:38:07;10.53;;;2.83;;
71503;SDS011;59323;50.874;7.028;2023-06-26T12:40:34;11.27;;;2.72;;
71503;SDS011;59323;50.874;7.028;2023-06-26T12:43:00;6.30;;;2.73;;
71503;SDS011;59323;50.874;7.028;2023-06-26T12:45:27;6.85;;;2.63;;
71503;SDS011;59323;50.874;7.028;2023-06-26T12:48:10;7.22;;;2.70;;
71503;SDS011;59323;50.874;7.028;2023-06-26T12:50:38;6.13;;;2.23;;
71503;SDS011;59323;50.874;7.028;2023-06-26T12:53:08;6.85;;;2.45;;
71503;SDS011;59323;50.874;7.028;2023-06-26T12:55:37;6.97;;;2.17;;
71503;SDS011;59323;50.874;7.028;2023-06-26T12:58:07;6.95;;;2.45;;
71503;SDS011;59323;50.874;7.028;2023-06-26T13:00:33;6.73;;;2.03;;
71503;SDS011;59323;50.874;7.028;2023-06-26T13:02:58;6.85;;;2.30;;
71503;SDS011;59323;50.874;7.028;2023-06-26T13:05:24;6.17;;;2.07;;
71503;SDS011;59323;50.874;7.028;2023-06-26T13:07:49;5.10;;;2.10;;
71503;SDS011;59323;50.874;7.028;2023-06-26T13:10:15;8.53;;;2.47;;
71503;SDS011;59323;50.874;7.028;2023-06-26T13:12:40;5.95;;;2.08;;
71503;SDS011;59323;50.874;7.028;2023-06-26T13:15:05;4.67;;;1.80;;
71503;SDS011;59323;50.874;7.028;2023-06-26T13:17:32;5.40;;;1.95;;
71503;SDS011;59323;50.874;7.028;2023-06-26T13:19:57;6.97;;;1.47;;
71503;SDS011;59323;50.874;7.028;2023-06-26T13:22:23;7.00;;;1.90;;
71503;SDS011;59323;50.874;7.028;2023-06-26T13:24:59;5.07;;;1.58;;
71503;SDS011;59323;50.874;7.028;2023-06-26T13:27:27;5.32;;;1.73;;
71503;SDS011;59323;50.874;7.028;2023-06-26T13:29:56;6.57;;;1.67;;
71503;SDS011;59323;50.874;7.028;2023-06-26T13:32:21;7.35;;;1.65;;
71503;SDS011;59323;50.874;7.028;2023-06-26T13:34:46;4.00;;;1.60;;
71503;SDS011;59323;50.874;7.028;2023-06-26T13:37:13;6.07;;;1.50;;
71503;SDS011;59323;50.874;7.028;2023-06-26T13:39:38;4.40;;;1.30;;
71503;SDS011;59323;50.874;7.028;2023-06-26T13:42:04;7.63;;;1.97;;
71503;SDS011;59323;50.874;7.028;2023-06-26T13:44:29;6.63;;;1.50;;
71503;SDS011;59323;50.874;7.028;2023-06-26T13:46:54;8.27;;;1.60;;
71503;SDS011;59323;50.874;7.028;2023-06-26T13:49:20;6.73;;;2.17;;
71503;SDS011;59323;50.874;7.028;2023-06-26T13:51:45;8.45;;;1.52;;
71503;SDS011;59323;50.874;7.028;2023-06-26T13:54:12;5.87;;;1.77;;
71503;SDS011;59323;50.874;7.028;2023-06-26T13:56:40;8.75;;;1.50;;
71503;SDS011;59323;50.874;7.028;2023-06-26T13:59:05;7.93;;;2.00;;
71503;SDS011;59323;50.874;7.028;2023-06-26T14:01:33;7.65;;;1.90;;
71503;SDS011;59323;50.874;7.028;2023-06-26T14:04:01;4.90;;;1.73;;
71503;SDS011;59323;50.874;7.028;2023-06-26T14:06:27;5.13;;;1.60;;
71503;SDS011;59323;50.874;7.028;2023-06-26T14:08:52;4.47;;;1.88;;
71503;SDS011;59323;50.874;7.028;2023-06-26T14:11:18;5.23;;;1.20;;
71503;SDS011;59323;50.874;7.028;2023-06-26T14:13:43;4.20;;;1.30;;
71503;SDS011;59323;50.874;7.028;2023-06-26T14:16:08;5.87;;;1.70;;
71503;SDS011;59323;50.874;7.028;2023-06-26T14:18:43;4.20;;;1.60;;
71503;SDS011;59323;50.874;7.028;2023-06-26T14:21:09;4.07;;;1.60;;
71503;SDS011;59323;50.874;7.028;2023-06-26T14:23:34;8.25;;;1.52;;
71503;SDS011;59323;50.874;7.028;2023-06-26T14:26:00;4.27;;;1.83;;
71503;SDS011;59323;50.874;7.028;2023-06-26T14:28:25;6.23;;;2.43;;
71503;SDS011;59323;50.874;7.028;2023-06-26T14:30:50;6.33;;;1.70;;
71503;SDS011;59323;50.874;7.028;2023-06-26T14:33:16;6.68;;;2.10;;
71503;SDS011;59323;50.874;7.028;2023-06-26T14:35:41;6.97;;;1.30;;
71503;SDS011;59323;50.874;7.028;2023-06-26T14:38:07;4.50;;;1.50;;
71503;SDS011;59323;50.874;7.028;2023-06-26T14:40:32;9.13;;;1.70;;
71503;SDS011;59323;50.874;7.028;2023-06-26T14:42:57;8.23;;;2.17;;
71503;SDS011;59323;50.874;7.028;2023-06-26T14:45:22;6.80;;;2.13;;
71503;SDS011;59323;50.874;7.028;2023-06-26T14:47:48;8.05;;;1.60;;
71503;SDS011;59323;50.874;7.028;2023-06-26T14:50:13;9.90;;;2.13;;
71503;SDS011;59323;50.874;7.028;2023-06-26T14:52:39;4.50;;;1.70;;